createdAt,value
2023-01-20T00:01:20.547Z,47.88
2023-01-20T00:03:48.199Z,47.20
2023-01-20T00:06:15.268Z,49.33
2023-01-20T00:08:42.492Z,45.65
2023-01-20T00:11:12.704Z,42.08
2023-01-20T00:13:40.092Z,42.83
2023-01-20T00:16:09.504Z,42.40
2023-01-20T00:18:37.047Z,51.40
2023-01-20T00:21:08.068Z,50.15
2023-01-20T00:23:35.560Z,40.05
2023-01-20T00:26:11.283Z,39.30
2023-01-20T00:28:38.717Z,45.88
2023-01-20T00:31:16.034Z,43.70
2023-01-20T00:33:43.161Z,38.45
2023-01-20T00:36:11.192Z,49.92
2023-01-20T00:38:38.584Z,45.47
2023-01-20T00:41:06.112Z,43.72
2023-01-20T00:43:33.370Z,47.08
2023-01-20T00:46:00.439Z,47.08
2023-01-20T00:48:27.442Z,41.53
2023-01-20T00:50:54.479Z,43.13
2023-01-20T00:53:21.506Z,39.83
2023-01-20T00:55:48.431Z,49.97
2023-01-20T00:58:15.759Z,46.08
2023-01-20T01:00:43.183Z,42.75
2023-01-20T01:03:13.028Z,42.33
2023-01-20T01:05:40.108Z,40.80
2023-01-20T01:08:07.166Z,49.90
2023-01-20T01:10:34.090Z,42.45
2023-01-20T01:13:03.182Z,43.85
2023-01-20T01:15:30.275Z,46.53
2023-01-20T01:17:58.816Z,45.60
2023-01-20T01:20:26.851Z,43.15
2023-01-20T01:22:53.811Z,40.33
2023-01-20T01:25:20.987Z,45.75
2023-01-20T01:27:47.912Z,43.95
2023-01-20T01:30:14.917Z,44.92
2023-01-20T01:32:41.808Z,53.20
2023-01-20T01:35:08.916Z,38.78
2023-01-20T01:37:35.839Z,41.05
2023-01-20T01:40:02.845Z,44.35
2023-01-20T01:42:29.925Z,40.05
2023-01-20T01:45:12.381Z,48.90
2023-01-20T01:47:48.252Z,46.05
2023-01-20T01:50:20.470Z,46.95
2023-01-20T01:52:50.382Z,42.85
2023-01-20T01:55:21.049Z,39.33
2023-01-20T01:57:50.305Z,40.20
2023-01-20T02:00:17.518Z,40.10
2023-01-20T02:02:45.878Z,38.95
2023-01-20T02:05:15.188Z,40.90
2023-01-20T02:07:45.352Z,41.92
2023-01-20T02:10:12.469Z,45.05
2023-01-20T02:12:41.312Z,42.42
2023-01-20T02:15:09.131Z,43.80
2023-01-20T02:17:57.586Z,39.40
2023-01-20T02:20:56.936Z,33.92
2023-01-20T02:23:58.732Z,47.33
2023-01-20T02:26:44.057Z,41.30
2023-01-20T02:29:26.678Z,45.15
2023-01-20T02:32:08.392Z,39.75
2023-01-20T02:35:20.037Z,43.13
2023-01-20T02:37:55.482Z,39.33
2023-01-20T02:40:39.633Z,38.38
2023-01-20T02:43:12.006Z,39.90
2023-01-20T02:45:47.716Z,41.70
2023-01-20T02:48:27.806Z,42.42
2023-01-20T02:51:09.317Z,43.60
2023-01-20T02:53:47.902Z,41.17
2023-01-20T02:56:16.970Z,45.60
2023-01-20T02:58:50.418Z,40.92
2023-01-20T03:01:37.208Z,46.30
2023-01-20T03:04:07.523Z,39.92
2023-01-20T03:06:38.157Z,44.88
2023-01-20T03:09:09.058Z,40.78
2023-01-20T03:11:41.170Z,33.05
2023-01-20T03:14:12.584Z,37.65
2023-01-20T03:16:40.605Z,37.60
2023-01-20T03:19:08.207Z,42.85
2023-01-20T03:21:35.417Z,38.28
2023-01-20T03:24:04.573Z,34.55
2023-01-20T03:26:31.853Z,36.92
2023-01-20T03:28:59.666Z,39.40
2023-01-20T03:31:31.032Z,39.08
2023-01-20T03:34:00.888Z,41.67
2023-01-20T03:36:30.291Z,40.95
2023-01-20T03:38:59.396Z,40.28
2023-01-20T03:41:44.472Z,33.92
2023-01-20T03:44:24.095Z,38.00
2023-01-20T03:46:58.861Z,37.85
2023-01-20T03:49:36.645Z,40.15
2023-01-20T03:52:13.683Z,36.20
2023-01-20T03:57:41.906Z,41.80
2023-01-20T04:00:10.812Z,41.97
2023-01-20T04:02:41.837Z,38.60
2023-01-20T04:05:10.337Z,34.47
2023-01-20T04:07:40.204Z,34.17
2023-01-20T04:10:12.296Z,39.83
2023-01-20T04:12:39.877Z,34.55
2023-01-20T04:15:08.171Z,34.38
2023-01-20T04:17:35.114Z,36.97
2023-01-20T04:20:08.008Z,37.38
2023-01-20T04:22:39.112Z,43.70
2023-01-20T04:25:15.606Z,37.72
2023-01-20T04:27:42.654Z,37.78
2023-01-20T04:30:10.479Z,34.83
2023-01-20T04:32:37.420Z,38.08
2023-01-20T04:35:04.621Z,34.30
2023-01-20T04:37:31.606Z,36.90
2023-01-20T04:39:58.638Z,36.75
2023-01-20T04:42:25.796Z,34.28
2023-01-20T04:44:52.736Z,36.78
2023-01-20T04:47:19.703Z,39.20
2023-01-20T04:49:46.607Z,42.50
2023-01-20T04:52:13.598Z,40.72
2023-01-20T04:54:40.584Z,41.47
2023-01-20T04:57:07.562Z,39.67
2023-01-20T04:59:34.646Z,33.45
2023-01-20T05:02:01.725Z,37.70
2023-01-20T05:04:28.825Z,40.58
2023-01-20T05:06:55.780Z,33.60
2023-01-20T05:09:22.774Z,34.13
2023-01-20T05:11:49.677Z,28.63
2023-01-20T05:14:16.603Z,34.15
2023-01-20T05:16:43.920Z,33.30
2023-01-20T05:19:12.667Z,37.40
2023-01-20T05:21:39.731Z,32.85
2023-01-20T05:24:06.863Z,35.58
2023-01-20T05:26:33.767Z,33.78
2023-01-20T05:29:01.025Z,30.05
2023-01-20T05:31:28.030Z,32.33
2023-01-20T05:33:55.039Z,34.85
2023-01-20T05:36:21.935Z,37.00
2023-01-20T05:38:48.852Z,38.45
2023-01-20T05:41:15.912Z,38.95
2023-01-20T05:43:42.859Z,34.20
2023-01-20T05:46:09.814Z,34.15
2023-01-20T05:48:36.815Z,36.83
2023-01-20T05:51:03.852Z,34.50
2023-01-20T05:53:30.822Z,35.25
2023-01-20T05:56:02.400Z,38.17
2023-01-20T05:58:29.989Z,34.28
2023-01-20T06:01:05.563Z,33.22
2023-01-20T06:03:32.574Z,40.88
2023-01-20T06:06:01.160Z,33.38
2023-01-20T06:08:28.128Z,40.42
2023-01-20T06:10:55.392Z,41.28
2023-01-20T06:13:22.528Z,37.80
2023-01-20T06:15:53.786Z,40.40
2023-01-20T06:18:21.940Z,41.83
2023-01-20T06:20:48.876Z,36.25
2023-01-20T06:23:16.209Z,40.13
2023-01-20T06:25:44.052Z,34.20
2023-01-20T06:28:10.969Z,40.72
2023-01-20T06:30:38.745Z,36.85
2023-01-20T06:33:10.668Z,38.65
2023-01-20T06:35:38.361Z,38.17
2023-01-20T06:38:05.303Z,41.25
2023-01-20T06:40:32.225Z,40.03
2023-01-20T06:42:59.461Z,38.78
2023-01-20T06:45:26.517Z,35.28
2023-01-20T06:47:53.481Z,38.47
2023-01-20T06:50:20.400Z,31.50
2023-01-20T06:52:47.347Z,32.60
2023-01-20T06:55:14.754Z,39.97
2023-01-20T06:57:41.823Z,38.70
2023-01-20T07:00:09.572Z,44.17
2023-01-20T07:02:36.489Z,36.72
2023-01-20T07:05:04.762Z,35.13
2023-01-20T07:07:31.745Z,35.63
2023-01-20T07:09:58.692Z,35.80
2023-01-20T07:12:25.667Z,37.20
2023-01-20T07:14:52.620Z,38.35
2023-01-20T07:17:19.565Z,35.28
2023-01-20T07:19:46.556Z,35.67
2023-01-20T07:22:13.646Z,37.22
2023-01-20T07:24:40.587Z,39.95
2023-01-20T07:27:07.491Z,32.88
2023-01-20T07:29:34.532Z,35.03
2023-01-20T07:32:01.494Z,31.92
2023-01-20T07:34:28.521Z,35.63
2023-01-20T07:36:55.487Z,42.22
2023-01-20T07:39:22.457Z,38.92
2023-01-20T07:41:49.842Z,45.00
2023-01-20T07:44:16.915Z,41.65
2023-01-20T07:46:43.866Z,39.17
2023-01-20T07:49:12.404Z,37.70
2023-01-20T07:51:40.069Z,39.33
2023-01-20T07:54:07.209Z,33.10
2023-01-20T07:56:34.209Z,41.90
2023-01-20T07:59:01.226Z,39.53
2023-01-20T08:01:31.027Z,39.00
2023-01-20T08:04:02.400Z,36.65
2023-01-20T08:06:30.195Z,39.85
2023-01-20T08:09:01.161Z,33.65
2023-01-20T08:11:28.871Z,37.28
2023-01-20T08:13:56.052Z,38.92
2023-01-20T08:16:23.279Z,38.40
2023-01-20T08:18:53.032Z,44.58
2023-01-20T08:21:21.449Z,36.60
2023-01-20T08:23:48.633Z,36.67
2023-01-20T08:26:15.822Z,38.97
2023-01-20T08:28:43.020Z,39.72
2023-01-20T08:31:13.239Z,37.95
2023-01-20T08:33:42.658Z,39.38
2023-01-20T08:36:15.356Z,44.20
2023-01-20T08:38:42.881Z,44.85
2023-01-20T08:41:16.543Z,41.13
2023-01-20T08:43:44.125Z,38.47
2023-01-20T08:46:14.182Z,38.30
2023-01-20T08:48:42.715Z,41.08
2023-01-20T08:51:14.391Z,36.58
2023-01-20T08:53:42.597Z,41.97
2023-01-20T08:56:10.892Z,37.88
2023-01-20T08:58:38.580Z,42.60
2023-01-20T09:01:11.828Z,34.85
2023-01-20T09:03:40.130Z,38.40
2023-01-20T09:06:08.612Z,39.92
2023-01-20T09:08:37.311Z,36.50
2023-01-20T09:11:06.124Z,38.75
2023-01-20T09:13:33.264Z,32.67
2023-01-20T09:16:00.596Z,38.45
2023-01-20T09:18:27.648Z,38.97
2023-01-20T09:20:55.035Z,40.05
2023-01-20T09:23:22.004Z,34.45
2023-01-20T09:25:48.942Z,37.00
2023-01-20T09:28:15.945Z,32.70
2023-01-20T09:30:48.077Z,33.78
2023-01-20T09:33:15.354Z,35.20
2023-01-20T09:35:42.443Z,35.85
2023-01-20T09:38:28.586Z,37.83
2023-01-20T09:41:33.306Z,33.90
2023-01-20T09:44:18.291Z,32.88
2023-01-20T09:47:22.466Z,33.63
2023-01-20T09:50:52.948Z,32.80
2023-01-20T09:53:46.956Z,40.42
2023-01-20T09:56:18.285Z,34.55
2023-01-20T09:59:03.571Z,34.90
2023-01-20T10:01:44.769Z,33.78
2023-01-20T10:04:40.114Z,39.83
2023-01-20T10:07:34.993Z,31.83
2023-01-20T10:10:10.826Z,34.00
2023-01-20T10:12:55.651Z,38.45
2023-01-20T10:15:29.892Z,37.28
2023-01-20T10:18:09.740Z,29.05
2023-01-20T10:20:46.998Z,33.92
2023-01-20T10:23:22.767Z,39.25
2023-01-20T10:26:09.850Z,37.70
2023-01-20T10:28:58.614Z,33.90
2023-01-20T10:31:33.511Z,34.60
2023-01-20T10:34:09.168Z,37.00
2023-01-20T10:36:37.049Z,38.38
2023-01-20T10:39:26.581Z,31.88
2023-01-20T10:42:02.282Z,32.72
2023-01-20T10:44:29.223Z,35.47
2023-01-20T10:47:17.274Z,33.05
2023-01-20T10:50:11.933Z,37.53
2023-01-20T10:52:38.900Z,35.83
2023-01-20T10:55:28.545Z,33.30
2023-01-20T10:58:08.309Z,30.42
2023-01-20T11:00:35.920Z,33.75
2023-01-20T11:03:06.320Z,26.10
2023-01-20T11:05:38.318Z,32.53
2023-01-20T11:08:16.622Z,30.27
2023-01-20T11:10:44.400Z,39.75
2023-01-20T11:13:12.218Z,32.25
2023-01-20T11:15:45.218Z,33.40
2023-01-20T11:18:15.135Z,33.80
2023-01-20T11:20:44.892Z,33.35
2023-01-20T11:23:41.024Z,35.88
2023-01-20T11:26:27.939Z,32.60
2023-01-20T11:29:02.837Z,27.58
2023-01-20T11:31:46.790Z,37.28
2023-01-20T11:34:21.415Z,29.88
2023-01-20T11:36:50.190Z,33.22
2023-01-20T11:39:49.437Z,30.35
2023-01-20T11:42:20.439Z,30.63
2023-01-20T11:45:15.264Z,29.95
2023-01-20T11:47:46.461Z,31.52
2023-01-20T11:50:13.807Z,27.85
2023-01-20T11:52:47.340Z,31.88
2023-01-20T11:55:24.584Z,35.67
2023-01-20T11:57:51.476Z,34.47
2023-01-20T12:00:21.357Z,33.83
2023-01-20T12:03:43.479Z,32.30
2023-01-20T12:06:28.137Z,29.92
2023-01-20T12:09:06.882Z,31.63
2023-01-20T12:12:02.338Z,31.30
2023-01-20T12:14:45.864Z,25.50
2023-01-20T12:17:19.024Z,30.23
2023-01-20T12:20:17.106Z,28.83
2023-01-20T12:23:06.269Z,27.13
2023-01-20T12:25:55.702Z,29.20
2023-01-20T12:28:29.374Z,33.42
2023-01-20T12:30:59.109Z,29.20
2023-01-20T12:33:30.972Z,24.38
2023-01-20T12:36:16.936Z,28.58
2023-01-20T12:38:53.215Z,30.10
2023-01-20T12:41:39.012Z,27.25
2023-01-20T12:44:24.806Z,34.47
2023-01-20T12:47:01.715Z,27.73
2023-01-20T12:52:47.347Z,26.60
2023-01-20T12:55:32.352Z,28.45
2023-01-20T12:58:17.314Z,27.13
2023-01-20T13:01:04.107Z,27.08
2023-01-20T13:04:05.432Z,25.90
2023-01-20T13:06:37.787Z,27.90
2023-01-20T13:09:39.828Z,28.90
2023-01-20T13:12:22.340Z,25.20
2023-01-20T13:15:13.392Z,25.55
2023-01-20T13:18:00.367Z,26.27
2023-01-20T13:20:30.542Z,26.10
2023-01-20T13:23:04.426Z,29.55
2023-01-20T13:25:34.157Z,25.65
2023-01-20T13:28:02.343Z,28.23
2023-01-20T13:30:48.022Z,26.35
2023-01-20T13:33:34.911Z,26.17
2023-01-20T13:36:15.329Z,29.73
2023-01-20T13:38:43.145Z,24.33
2023-01-20T13:41:11.065Z,28.67
2023-01-20T13:43:49.042Z,27.58
2023-01-20T13:46:17.131Z,31.77
2023-01-20T13:49:21.647Z,28.00
2023-01-20T13:51:48.727Z,28.05
2023-01-20T13:54:34.174Z,30.63
2023-01-20T13:57:20.444Z,27.45
2023-01-20T13:59:47.807Z,24.58
2023-01-20T14:02:22.148Z,24.27
2023-01-20T14:04:49.463Z,22.67
2023-01-20T14:07:24.631Z,23.77
2023-01-20T14:09:56.825Z,25.75
2023-01-20T14:12:24.064Z,26.52
2023-01-20T14:14:52.284Z,27.85
2023-01-20T14:17:22.862Z,28.65
2023-01-20T14:19:52.699Z,23.52
2023-01-20T14:22:23.985Z,22.15
2023-01-20T14:24:53.010Z,27.42
2023-01-20T14:27:29.787Z,24.27
2023-01-20T14:29:59.840Z,24.13
2023-01-20T14:32:34.800Z,23.75
2023-01-20T14:35:04.592Z,25.40
2023-01-20T14:37:36.629Z,25.13
2023-01-20T14:40:27.228Z,26.55
2023-01-20T14:43:03.077Z,19.83
2023-01-20T14:45:33.008Z,21.88
2023-01-20T14:48:02.852Z,21.02
2023-01-20T14:50:32.349Z,21.45
2023-01-20T14:52:59.417Z,24.40
2023-01-20T14:56:00.955Z,21.65
2023-01-20T14:58:30.676Z,24.02
2023-01-20T15:01:02.933Z,21.80
2023-01-20T15:03:31.056Z,25.02
2023-01-20T15:06:09.040Z,20.55
2023-01-20T15:08:36.793Z,23.23
2023-01-20T15:11:18.803Z,22.55
2023-01-20T15:13:53.040Z,22.13
2023-01-20T15:16:25.812Z,21.17
2023-01-20T15:19:17.615Z,22.40
2023-01-20T15:21:47.302Z,24.00
2023-01-20T15:24:16.945Z,22.17
2023-01-20T15:26:45.041Z,24.80
2023-01-20T15:29:28.931Z,23.73
2023-01-20T15:31:58.201Z,24.88
2023-01-20T15:34:26.099Z,21.17
2023-01-20T15:36:54.581Z,19.95
2023-01-20T15:39:24.367Z,26.55
2023-01-20T15:41:54.108Z,20.67
2023-01-20T15:44:21.864Z,23.05
2023-01-20T15:46:48.862Z,23.80
2023-01-20T15:49:16.753Z,22.88
2023-01-20T15:51:44.541Z,20.90
2023-01-20T15:54:13.808Z,22.50
2023-01-20T15:56:41.885Z,19.35
2023-01-20T15:59:13.780Z,23.75
2023-01-20T16:01:40.935Z,25.70
2023-01-20T16:04:08.039Z,22.83
2023-01-20T16:06:35.249Z,25.10
2023-01-20T16:09:09.120Z,24.67
2023-01-20T16:11:36.120Z,21.58
2023-01-20T16:14:03.038Z,23.98
2023-01-20T16:16:30.146Z,24.60
2023-01-20T16:18:57.188Z,21.95
2023-01-20T16:21:24.309Z,18.90
2023-01-20T16:23:51.363Z,26.55
2023-01-20T16:26:24.148Z,25.08
2023-01-20T16:28:52.490Z,22.25
2023-01-20T16:31:20.068Z,24.48
2023-01-20T16:33:47.433Z,25.15
2023-01-20T16:36:17.952Z,22.67
2023-01-20T16:38:46.200Z,27.02
2023-01-20T16:41:27.738Z,25.50
2023-01-20T16:43:55.548Z,24.00
2023-01-20T16:46:25.633Z,25.33
2023-01-20T16:48:54.605Z,23.77
2023-01-20T16:51:25.446Z,26.42
2023-01-20T16:53:53.348Z,24.90
2023-01-20T16:56:22.374Z,23.00
2023-01-20T16:58:51.784Z,27.23
2023-01-20T17:01:24.839Z,27.48
2023-01-20T17:03:53.987Z,27.55
2023-01-20T17:06:24.103Z,27.73
2023-01-20T17:08:55.988Z,29.73
2023-01-20T17:11:28.438Z,25.75
2023-01-20T17:13:56.515Z,25.95
2023-01-20T17:16:26.132Z,27.13
2023-01-20T17:18:55.254Z,25.77
2023-01-20T17:21:23.576Z,33.55
2023-01-20T17:23:55.271Z,28.80
2023-01-20T17:26:23.582Z,25.75
2023-01-20T17:28:54.971Z,25.45
2023-01-20T17:31:22.746Z,25.27
2023-01-20T17:33:50.485Z,32.03
2023-01-20T17:36:18.258Z,29.33
2023-01-20T17:38:46.068Z,27.85
2023-01-20T17:41:14.392Z,26.63
2023-01-20T17:43:46.029Z,25.75
2023-01-20T17:46:18.686Z,26.02
2023-01-20T17:48:46.752Z,25.05
2023-01-20T17:51:22.926Z,27.08
2023-01-20T17:53:51.556Z,26.67
2023-01-20T17:56:20.668Z,29.55
2023-01-20T17:58:48.966Z,27.20
2023-01-20T18:01:27.889Z,24.50
2023-01-20T18:03:56.949Z,27.52
2023-01-20T18:06:26.089Z,24.90
2023-01-20T18:08:54.271Z,21.60
2023-01-20T18:11:23.156Z,24.95
2023-01-20T18:13:55.436Z,29.85
2023-01-20T18:16:24.244Z,30.40
2023-01-20T18:18:51.334Z,29.70
2023-01-20T18:21:23.446Z,26.77
2023-01-20T18:23:51.391Z,26.05
2023-01-20T18:26:21.489Z,27.95
2023-01-20T18:28:49.312Z,30.55
2023-01-20T18:31:19.239Z,26.05
2023-01-20T18:33:48.805Z,26.90
2023-01-20T18:36:28.742Z,23.80
2023-01-20T18:38:58.802Z,25.98
2023-01-20T18:41:27.703Z,27.10
2023-01-20T18:43:54.684Z,24.13
2023-01-20T18:46:21.675Z,25.90
2023-01-20T18:48:49.200Z,26.02
2023-01-20T18:51:20.437Z,30.65
2023-01-20T18:53:54.401Z,27.92
2023-01-20T18:56:21.642Z,26.67
2023-01-20T18:58:49.749Z,29.83
2023-01-20T19:01:20.112Z,30.73
2023-01-20T19:03:48.193Z,26.65
2023-01-20T19:06:21.068Z,28.33
2023-01-20T19:08:48.628Z,27.20
2023-01-20T19:11:21.330Z,26.67
2023-01-20T19:13:50.118Z,27.92
2023-01-20T19:16:25.638Z,27.65
2023-01-20T19:18:57.980Z,27.73
2023-01-20T19:21:25.935Z,27.42
2023-01-20T19:23:55.142Z,27.45
2023-01-20T19:26:24.149Z,31.88
2023-01-20T19:28:58.362Z,28.77
2023-01-20T19:31:25.679Z,25.17
2023-01-20T19:33:52.780Z,26.48
2023-01-20T19:36:20.475Z,29.25
2023-01-20T19:38:47.639Z,32.17
2023-01-20T19:41:36.244Z,33.85
2023-01-20T19:44:06.769Z,30.33
2023-01-20T19:46:36.904Z,28.00
2023-01-20T19:49:04.013Z,31.52
2023-01-20T19:51:32.134Z,31.65
2023-01-20T19:54:01.220Z,29.17
2023-01-20T19:56:33.366Z,27.90
2023-01-20T19:59:01.279Z,29.08
2023-01-20T20:01:31.776Z,26.75
2023-01-20T20:03:59.957Z,29.65
2023-01-20T20:06:38.382Z,29.98
2023-01-20T20:09:12.248Z,29.05
2023-01-20T20:11:39.743Z,33.20
2023-01-20T20:14:09.035Z,31.00
2023-01-20T20:16:37.574Z,32.30
2023-01-20T20:19:08.376Z,31.10
2023-01-20T20:21:35.395Z,28.45
2023-01-20T20:24:05.270Z,34.83
2023-01-20T20:26:35.706Z,33.58
2023-01-20T20:29:05.305Z,34.75
2023-01-20T20:31:34.310Z,32.83
2023-01-20T20:34:02.709Z,29.92
2023-01-20T20:36:31.198Z,30.52
2023-01-20T20:38:59.325Z,33.55
2023-01-20T20:41:29.080Z,33.08
2023-01-20T20:43:57.024Z,37.10
2023-01-20T20:46:24.385Z,30.90
2023-01-20T20:48:56.212Z,28.38
2023-01-20T20:51:26.106Z,30.48
2023-01-20T20:53:56.644Z,34.00
2023-01-20T20:56:24.651Z,30.88
2023-01-20T20:59:03.053Z,36.28
2023-01-20T21:01:34.320Z,31.55
2023-01-20T21:04:03.165Z,36.50
2023-01-20T21:06:31.234Z,35.28
2023-01-20T21:08:58.895Z,35.95
2023-01-20T21:11:25.929Z,33.22
2023-01-20T21:13:54.070Z,32.90
2023-01-20T21:16:23.495Z,29.88
2023-01-20T21:18:56.370Z,34.33
2023-01-20T21:21:24.253Z,32.15
2023-01-20T21:23:53.420Z,32.95
2023-01-20T21:26:23.861Z,34.78
2023-01-20T21:28:51.212Z,37.30
2023-01-20T21:31:22.632Z,39.22
2023-01-20T21:33:54.925Z,35.67
2023-01-20T21:36:23.293Z,37.38
2023-01-20T21:38:51.447Z,33.63
2023-01-20T21:41:19.339Z,31.83
2023-01-20T21:44:06.310Z,31.73
2023-01-20T21:46:38.443Z,33.13
2023-01-20T21:49:25.091Z,33.38
2023-01-20T21:52:10.956Z,33.38
2023-01-20T21:54:39.903Z,29.48
2023-01-20T21:57:07.150Z,32.00
2023-01-20T21:59:34.072Z,33.78
2023-01-20T22:02:01.162Z,33.08
2023-01-20T22:04:28.159Z,28.23
2023-01-20T22:06:55.067Z,29.23
2023-01-20T22:09:22.017Z,27.17
2023-01-20T22:11:49.515Z,25.73
2023-01-20T22:14:16.466Z,31.33
2023-01-20T22:16:43.526Z,28.55
2023-01-20T22:19:13.660Z,26.58
2023-01-20T22:21:40.918Z,27.50
2023-01-20T22:24:08.814Z,25.40
2023-01-20T22:26:35.837Z,25.92
2023-01-20T22:29:02.993Z,21.98
2023-01-20T22:31:31.353Z,24.02
2023-01-20T22:33:59.369Z,23.13
2023-01-20T22:36:26.461Z,24.50
2023-01-20T22:38:54.000Z,26.05
2023-01-20T22:41:21.645Z,20.58
2023-01-20T22:43:50.964Z,24.50
2023-01-20T22:46:20.657Z,27.60
2023-01-20T22:48:48.035Z,24.25
2023-01-20T22:51:18.255Z,24.50
2023-01-20T22:53:45.592Z,22.20
2023-01-20T22:56:13.874Z,20.67
2023-01-20T22:58:41.995Z,19.83
2023-01-20T23:01:23.617Z,16.90
2023-01-20T23:04:16.925Z,25.65
2023-01-20T23:06:43.875Z,19.33
2023-01-20T23:09:12.595Z,20.20
2023-01-20T23:11:40.478Z,17.10
2023-01-20T23:14:09.567Z,15.48
2023-01-20T23:16:36.851Z,16.08
2023-01-20T23:19:04.012Z,15.05
2023-01-20T23:21:31.784Z,17.40
2023-01-20T23:23:58.989Z,18.75
2023-01-20T23:26:28.789Z,19.15
2023-01-20T23:28:56.761Z,17.08
2023-01-20T23:31:25.437Z,15.05
2023-01-20T23:33:53.783Z,17.73
2023-01-20T23:36:25.423Z,13.32
2023-01-20T23:38:56.539Z,15.90
2023-01-20T23:41:24.602Z,16.58
2023-01-20T23:43:52.066Z,16.00
2023-01-20T23:46:19.159Z,14.50
2023-01-20T23:48:47.156Z,14.23
2023-01-20T23:51:14.781Z,16.25
2023-01-20T23:53:42.254Z,16.08
2023-01-20T23:56:18.496Z,17.17
2023-01-20T23:58:46.091Z,17.52
